Time;durP1;ratioP1;P1;durP2;ratioP2;P2;SDS_P1;SDS_P2;PMS_P1;PMS_P2;Temp;Humidity;BMP_temperature;BMP_pressure;BME280_temperature;BME280_humidity;BME280_pressure;Samples;Min_cycle;Max_cycle;Signal;HPM_P1;HPM_P2
2024/03/25 00:00:16;;;;;;;2.60;2.33;;;4.50;99.90;;;;;;5043853;28;20248;-74
2024/03/25 00:02:42;;;;;;;4.63;2.40;;;4.40;99.90;;;;;;5039844;28;20213;-74
2024/03/25 00:05:10;;;;;;;3.25;2.30;;;4.40;99.90;;;;;;5092593;27;20275;-74
2024/03/25 00:07:36;;;;;;;5.35;3.25;;;4.30;99.90;;;;;;5038979;28;20203;-74
2024/03/25 00:10:03;;;;;;;4.50;2.80;;;4.40;99.90;;;;;;5043260;28;20187;-74
2024/03/25 00:12:29;;;;;;;6.45;2.58;;;4.40;99.90;;;;;;5056013;28;20715;-74
2024/03/25 00:14:56;;;;;;;4.33;2.17;;;4.40;99.90;;;;;;5050214;28;20314;-74
2024/03/25 00:17:22;;;;;;;3.60;3.10;;;4.30;99.90;;;;;;5024741;28;20226;-74
2024/03/25 00:19:50;;;;;;;3.30;2.90;;;4.20;99.90;;;;;;5034711;28;20227;-74
2024/03/25 00:22:18;;;;;;;3.00;2.70;;;4.40;99.90;;;;;;5061377;28;20616;-74
2024/03/25 00:24:44;;;;;;;5.70;2.85;;;4.40;99.90;;;;;;5083099;27;20286;-74
2024/03/25 00:27:10;;;;;;;3.30;2.55;;;4.40;99.90;;;;;;5043273;28;20199;-74
2024/03/25 00:29:37;;;;;;;4.87;2.40;;;4.20;99.90;;;;;;5041072;28;20203;-74
2024/03/25 00:32:03;;;;;;;3.42;2.28;;;4.30;99.90;;;;;;5044156;28;20203;-74
2024/03/25 00:34:30;;;;;;;6.32;3.00;;;4.30;99.90;;;;;;5034497;28;20668;-74
2024/03/25 00:36:56;;;;;;;4.38;2.55;;;4.20;99.90;;;;;;5051678;28;20205;-74
2024/03/25 00:39:25;;;;;;;2.83;2.53;;;4.20;99.90;;;;;;5028096;28;20771;-74
2024/03/25 00:41:51;;;;;;;7.40;2.72;;;4.20;99.90;;;;;;5039918;28;20276;-74
2024/03/25 00:44:18;;;;;;;4.80;2.83;;;4.30;99.90;;;;;;5040303;28;20602;-74
2024/03/25 00:46:44;;;;;;;3.50;2.80;;;4.30;99.90;;;;;;5054054;28;20205;-74
2024/03/25 00:49:11;;;;;;;3.07;2.77;;;4.20;99.90;;;;;;5050780;28;20286;-74
2024/03/25 00:51:37;;;;;;;2.58;2.30;;;4.10;99.90;;;;;;5042971;28;20625;-74
2024/03/25 00:54:04;;;;;;;5.03;2.65;;;4.10;99.90;;;;;;5033462;28;20591;-74
2024/03/25 00:56:32;;;;;;;3.80;2.50;;;4.10;99.90;;;;;;5034532;28;20203;-74
2024/03/25 00:59:02;;;;;;;6.40;3.00;;;4.10;99.90;;;;;;5035431;28;20228;-74
2024/03/25 01:01:28;;;;;;;4.10;2.42;;;4.10;99.90;;;;;;5065170;27;20216;-74
2024/03/25 01:03:55;;;;;;;2.47;2.27;;;4.00;99.90;;;;;;5082258;27;20191;-73
2024/03/25 01:06:21;;;;;;;3.95;2.95;;;4.10;99.90;;;;;;5055424;28;20612;-73
2024/03/25 01:08:47;;;;;;;3.90;2.53;;;4.10;99.90;;;;;;5053560;27;20209;-73
2024/03/25 01:11:13;;;;;;;3.45;2.65;;;3.90;99.90;;;;;;5039951;28;20622;-73
2024/03/25 01:13:42;;;;;;;3.80;2.33;;;3.90;99.90;;;;;;5066349;28;20209;-73
2024/03/25 01:16:08;;;;;;;3.22;2.85;;;3.90;99.90;;;;;;5057112;27;20361;-73
2024/03/25 01:18:35;;;;;;;3.50;3.00;;;4.00;99.90;;;;;;5049765;28;20226;-74
2024/03/25 01:21:00;;;;;;;6.00;3.28;;;3.90;99.90;;;;;;5048382;28;20202;-74
2024/03/25 01:23:27;;;;;;;6.00;2.50;;;4.00;99.90;;;;;;5066619;27;20208;-74
2024/03/25 01:25:53;;;;;;;4.43;3.22;;;4.00;99.90;;;;;;5064985;27;20717;-74
2024/03/25 01:28:20;;;;;;;4.80;2.90;;;3.90;99.90;;;;;;5058292;28;20735;-74
2024/03/25 01:30:47;;;;;;;4.25;3.08;;;3.90;99.90;;;;;;5037146;28;20225;-74
2024/03/25 01:33:14;;;;;;;3.90;2.80;;;4.00;99.90;;;;;;5038345;28;20198;-74
2024/03/25 01:35:40;;;;;;;5.55;3.63;;;3.90;99.90;;;;;;5051434;28;20191;-74
2024/03/25 01:38:07;;;;;;;4.97;2.85;;;3.90;99.90;;;;;;5043124;28;20187;-74
2024/03/25 01:40:33;;;;;;;4.78;2.83;;;3.90;99.90;;;;;;5051210;28;20237;-74
2024/03/25 01:43:02;;;;;;;5.38;3.35;;;3.90;99.90;;;;;;5047186;28;20199;-74
2024/03/25 01:45:31;;;;;;;3.85;2.45;;;3.80;99.90;;;;;;5050862;28;20296;-74
2024/03/25 01:48:02;;;;;;;4.25;2.75;;;3.80;99.90;;;;;;5044013;27;20225;-74
2024/03/25 01:50:29;;;;;;;3.85;2.90;;;3.80;99.90;;;;;;5042686;28;20251;-74
2024/03/25 01:52:57;;;;;;;3.95;2.50;;;3.80;99.90;;;;;;5078513;27;20197;-74
2024/03/25 01:55:27;;;;;;;5.97;3.13;;;3.80;99.90;;;;;;5045590;28;20196;-74
2024/03/25 01:57:54;;;;;;;6.97;3.67;;;3.80;99.90;;;;;;5046055;28;20251;-74
2024/03/25 02:00:21;;;;;;;4.28;2.95;;;3.80;99.90;;;;;;5039867;28;20214;-74
2024/03/25 02:02:48;;;;;;;3.13;2.85;;;3.80;99.90;;;;;;5046418;28;20576;-74
2024/03/25 02:05:15;;;;;;;4.22;3.20;;;3.80;99.90;;;;;;5035193;28;20278;-74
2024/03/25 02:07:43;;;;;;;3.20;2.90;;;3.80;99.90;;;;;;5058758;28;20312;-74
2024/03/25 02:10:10;;;;;;;10.52;3.25;;;3.80;99.90;;;;;;5055551;28;20206;-74
2024/03/25 02:12:37;;;;;;;6.07;2.67;;;3.80;99.90;;;;;;5053994;28;20979;-74
2024/03/25 02:15:06;;;;;;;5.60;2.30;;;3.80;99.90;;;;;;5046885;28;20197;-74
2024/03/25 02:17:34;;;;;;;4.68;3.00;;;3.80;99.90;;;;;;5045558;28;20738;-74
2024/03/25 02:20:01;;;;;;;5.05;2.70;;;3.90;99.90;;;;;;5050640;28;20230;-74
2024/03/25 02:22:31;;;;;;;3.22;2.88;;;3.90;99.90;;;;;;5030501;28;20602;-74
2024/03/25 02:24:58;;;;;;;4.38;2.80;;;3.90;99.90;;;;;;5034869;28;20203;-74
2024/03/25 02:27:28;;;;;;;7.53;3.70;;;3.80;99.90;;;;;;5045711;28;20205;-74
2024/03/25 02:29:54;;;;;;;3.50;3.20;;;3.90;99.90;;;;;;5028911;28;20234;-74
2024/03/25 02:32:21;;;;;;;6.05;3.42;;;3.90;99.90;;;;;;5040728;28;20207;-74
2024/03/25 02:34:51;;;;;;;4.57;3.50;;;3.90;99.90;;;;;;5040362;28;20227;-74
2024/03/25 02:37:19;;;;;;;4.65;3.05;;;4.00;99.90;;;;;;5049197;28;20202;-74
2024/03/25 02:39:46;;;;;;;7.25;3.00;;;4.00;99.90;;;;;;5057305;28;20253;-74
2024/03/25 02:42:13;;;;;;;3.22;2.95;;;4.10;99.90;;;;;;5042080;28;20200;-74
2024/03/25 02:44:43;;;;;;;3.60;2.80;;;4.00;99.90;;;;;;5037098;27;20217;-74
2024/03/25 02:47:11;;;;;;;2.95;2.65;;;4.00;99.90;;;;;;5063139;28;20202;-74
2024/03/25 02:49:38;;;;;;;6.07;3.17;;;4.10;99.90;;;;;;5081285;27;20416;-74
2024/03/25 02:52:06;;;;;;;5.00;3.85;;;4.10;99.90;;;;;;5053206;27;20279;-74
2024/03/25 02:54:33;;;;;;;6.97;3.00;;;4.10;99.90;;;;;;5048252;27;20201;-74
2024/03/25 02:57:02;;;;;;;6.95;3.63;;;4.10;99.90;;;;;;5044254;28;20211;-74
2024/03/25 02:59:28;;;;;;;4.60;3.67;;;4.10;99.90;;;;;;5054604;28;20223;-74
2024/03/25 03:01:58;;;;;;;5.25;3.45;;;4.10;99.90;;;;;;5062099;27;20280;-74
2024/03/25 03:04:26;;;;;;;5.47;3.60;;;4.10;99.90;;;;;;5061140;28;20259;-74
2024/03/25 03:06:54;;;;;;;3.42;3.10;;;4.10;99.90;;;;;;5037053;28;20202;-74
2024/03/25 03:09:20;;;;;;;5.22;3.28;;;4.10;99.90;;;;;;5037588;28;20256;-74
2024/03/25 03:11:49;;;;;;;10.23;3.47;;;4.10;99.90;;;;;;5035892;28;20504;-74
2024/03/25 03:14:16;;;;;;;4.78;3.22;;;4.10;99.90;;;;;;5046054;28;20615;-74
2024/03/25 03:16:43;;;;;;;4.75;2.83;;;4.10;99.90;;;;;;5036337;28;20195;-74
2024/03/25 03:19:12;;;;;;;4.30;3.15;;;4.10;99.90;;;;;;5041310;28;20245;-74
2024/03/25 03:21:38;;;;;;;3.20;2.90;;;4.20;99.90;;;;;;5043213;27;20255;-74
2024/03/25 03:24:05;;;;;;;5.10;3.35;;;4.10;99.90;;;;;;5027392;28;20196;-74
2024/03/25 03:26:32;;;;;;;5.30;3.10;;;4.10;99.90;;;;;;5047387;27;20196;-75
2024/03/25 03:28:58;;;;;;;3.72;3.30;;;4.10;99.90;;;;;;5043176;28;20237;-74
2024/03/25 03:31:28;;;;;;;5.50;3.40;;;4.10;99.90;;;;;;5044468;28;20602;-74
2024/03/25 03:33:55;;;;;;;5.35;2.50;;;4.10;99.90;;;;;;5032126;28;20655;-74
2024/03/25 03:36:24;;;;;;;6.25;4.45;;;4.10;99.90;;;;;;5027835;28;20264;-74
2024/03/25 03:38:51;;;;;;;2.72;2.53;;;4.10;99.90;;;;;;5050286;28;20192;-75
2024/03/25 03:41:19;;;;;;;4.13;3.08;;;4.00;99.90;;;;;;5059173;28;20662;-74
2024/03/25 03:43:46;;;;;;;4.10;3.40;;;3.90;99.90;;;;;;5045887;28;20244;-74
2024/03/25 03:46:14;;;;;;;3.35;2.72;;;3.90;99.90;;;;;;5040453;28;20214;-74
2024/03/25 03:48:41;;;;;;;9.18;2.78;;;3.90;99.90;;;;;;5041718;27;20200;-74
2024/03/25 03:51:08;;;;;;;6.20;3.17;;;3.90;99.90;;;;;;5040330;28;20252;-74
2024/03/25 03:53:35;;;;;;;6.88;2.90;;;3.90;99.90;;;;;;5050781;28;20629;-74
2024/03/25 03:56:04;;;;;;;4.88;3.25;;;3.90;99.90;;;;;;5034582;28;20227;-75
2024/03/25 03:58:30;;;;;;;3.65;3.00;;;3.80;99.90;;;;;;5034759;28;20702;-74
2024/03/25 04:00:56;;;;;;;3.33;2.97;;;3.80;99.90;;;;;;5039892;28;21204;-74
2024/03/25 04:03:22;;;;;;;4.15;3.25;;;4.00;99.90;;;;;;5025719;28;20628;-74
2024/03/25 04:05:49;;;;;;;5.07;3.38;;;3.90;99.90;;;;;;5026445;28;20199;-74
2024/03/25 04:08:15;;;;;;;5.97;3.45;;;4.00;99.90;;;;;;5042106;28;20782;-74
2024/03/25 04:10:45;;;;;;;4.30;3.42;;;4.00;99.90;;;;;;5053721;28;20262;-74
2024/03/25 04:13:12;;;;;;;4.88;3.45;;;4.00;99.90;;;;;;5039937;28;20203;-74
2024/03/25 04:15:40;;;;;;;4.50;3.15;;;4.00;99.90;;;;;;5048268;27;20222;-74
2024/03/25 04:18:07;;;;;;;3.05;2.75;;;4.00;99.90;;;;;;5042314;28;20558;-75
2024/03/25 04:20:38;;;;;;;6.50;3.53;;;4.10;99.90;;;;;;5076890;27;20283;-74
2024/03/25 04:23:04;;;;;;;4.70;3.92;;;4.00;99.90;;;;;;5074608;27;20270;-74
2024/03/25 04:25:32;;;;;;;5.13;3.00;;;4.00;99.90;;;;;;5044708;28;20674;-74
2024/03/25 04:28:00;;;;;;;4.20;2.90;;;4.10;99.90;;;;;;5035895;28;20629;-74
2024/03/25 04:30:27;;;;;;;3.53;3.22;;;3.90;99.90;;;;;;5030015;28;20699;-74
2024/03/25 04:32:53;;;;;;;4.93;3.22;;;3.90;99.90;;;;;;5031934;28;20294;-74
2024/03/25 04:35:20;;;;;;;4.10;3.45;;;3.90;99.90;;;;;;5053444;28;20199;-74
